Newport Beach, California
Current Conditions -  °F | °C
As of 9:53 PM on Wednesday 28 Jan 2015 (Local Time) from KSNA Reporting Station
Broken Clouds Broken Clouds  
Wind Chill: 65°   Ceiling: 25000
Heat Index: 65°   Visibility: 10mi
Dew Point: 54°   Wind: 0mph
Humidity: 68%   Direction: NA
Pressure: 30.08"   Gusts: NA
Location:  33.62°N, 117.93°W
Report Text: KSNA 290553Z 00000KT 10SM FEW080 SCT170 BKN250 18/12 A3008 RMK AO2 SLP183 T01830122 10222 20183 56001
Loading
Personal Weather Stations






























Interactive Weather Map New forecast layout! Learn more

10-Day Weather Forecast

Advertisements
Track Severe Weather on mobile